Weather at Tucson International Airport / Morris Air National Guard Base

Public forecast

Using degrees Fahrenheit for public forecast. Weather courtesy of forecast.io.

Current aviation weather report (METAR) for Tucson International Airport / Morris Air National Guard Base

2024/06/16 20:53 (retrieved 19 minutes ago)

KTUS 162053Z 29009G16KT 10SM CLR 40/01 A2976 RMK AO2 SLP017 T04000006 58025

Aviation forecast (TAF) for Tucson International Airport / Morris Air National Guard Base

2024/06/16 18:22 (retrieved 3 hours ago)

TAF KTUS 161720Z 1618/1718 27008KT P6SM SKC FM162200 26012G20KT P6SM SKC FM170300 26008KT P6SM SKC FM170700 15008KT P6SM SKC